Time;durP1;ratioP1;P1;durP2;ratioP2;P2;SDS_P1;SDS_P2;PMS_P1;PMS_P2;Temp;Humidity;BMP_temperature;BMP_pressure;BME280_temperature;BME280_humidity;BME280_pressure;Samples;Min_cycle;Max_cycle;Signal;HPM_P1;HPM_P2
2022/12/31 00:00:28;;;;;;;18.60;10.25;;;;;;;1.66;90.60;98917.28;5098098;27;20045;-71
2022/12/31 00:02:52;;;;;;;16.55;9.55;;;;;;;1.68;90.53;98914.59;5120034;27;20027;-74
2022/12/31 00:05:17;;;;;;;17.48;9.52;;;;;;;1.60;90.77;98909.69;5118544;27;20035;-73
2022/12/31 00:07:41;;;;;;;19.25;9.55;;;;;;;1.56;90.89;98916.03;5116035;27;20061;-75
2022/12/31 00:10:07;;;;;;;17.08;10.27;;;;;;;1.52;90.62;98917.06;5100592;27;20393;-76
2022/12/31 00:12:34;;;;;;;18.35;9.88;;;;;;;1.52;90.73;98911.81;5095434;27;20095;-73
2022/12/31 00:15:01;;;;;;;21.08;9.75;;;;;;;1.51;90.97;98918.00;5117609;27;20438;-71
2022/12/31 00:17:26;;;;;;;13.98;8.70;;;;;;;1.53;91.04;98913.53;5117966;27;20042;-73
2022/12/31 00:19:50;;;;;;;18.17;10.25;;;;;;;1.50;90.72;98905.78;5119393;27;20049;-73
2022/12/31 00:22:15;;;;;;;17.45;9.73;;;;;;;1.48;91.07;98907.63;5118316;27;20043;-74
2022/12/31 00:24:40;;;;;;;15.02;9.40;;;;;;;1.48;90.86;98907.63;5118936;27;20046;-74
2022/12/31 00:27:04;;;;;;;14.80;9.48;;;;;;;1.51;91.09;98907.50;5118440;27;20042;-73
2022/12/31 00:29:29;;;;;;;17.80;11.02;;;;;;;1.54;91.08;98930.13;5118857;27;20129;-74
2022/12/31 00:31:54;;;;;;;20.65;12.02;;;;;;;1.54;90.85;98898.63;5062495;27;20031;-73
2022/12/31 00:34:18;;;;;;;18.50;10.43;;;;;;;1.52;90.81;98895.22;5109287;27;20413;-69
2022/12/31 00:36:44;;;;;;;17.33;10.52;;;;;;;1.51;90.30;98902.22;5099940;27;20130;-69
2022/12/31 00:39:09;;;;;;;15.20;9.70;;;;;;;1.52;90.69;98898.69;5118432;27;20042;-68
2022/12/31 00:41:34;;;;;;;19.52;10.07;;;;;;;1.53;90.57;98904.78;5120195;27;20089;-68
2022/12/31 00:43:59;;;;;;;14.10;9.45;;;;;;;1.55;90.76;98903.81;5101547;27;20497;-68
2022/12/31 00:46:23;;;;;;;16.48;10.02;;;;;;;1.57;90.39;98901.97;5118281;27;20489;-69
2022/12/31 00:48:48;;;;;;;15.95;10.40;;;;;;;1.58;91.02;98903.63;5100320;27;20412;-68
2022/12/31 00:51:15;;;;;;;15.15;8.75;;;;;;;1.55;90.19;98897.69;5118402;27;20398;-68
2022/12/31 00:53:41;;;;;;;15.85;9.45;;;;;;;1.53;90.63;98892.50;5117308;27;20195;-68
2022/12/31 00:56:09;;;;;;;16.73;9.95;;;;;;;1.48;90.97;98894.50;5095927;27;20500;-67
2022/12/31 00:58:34;;;;;;;15.02;8.60;;;;;;;1.42;90.89;98893.00;5080834;27;20061;-69
2022/12/31 01:01:09;;;;;;;15.18;10.10;;;;;;;1.45;90.92;98895.50;5081333;27;20031;-69
2022/12/31 01:03:34;;;;;;;18.40;12.63;;;;;;;1.39;91.14;98889.66;5098551;27;21521;-69
2022/12/31 01:05:58;;;;;;;16.15;10.40;;;;;;;1.32;90.91;98894.38;5095654;27;20449;-70
2022/12/31 01:08:23;;;;;;;18.27;11.48;;;;;;;1.34;91.24;98889.03;5081400;27;20043;-70
2022/12/31 01:13:32;;;;;;;16.67;12.00;;;;;;;1.38;91.29;98895.84;5098389;27;20038;-68
2022/12/31 01:15:57;;;;;;;18.15;10.85;;;;;;;1.36;90.98;98895.91;5081230;27;20031;-69
2022/12/31 01:18:21;;;;;;;17.98;11.10;;;;;;;1.34;91.38;98900.41;5116975;27;20061;-70
2022/12/31 01:20:46;;;;;;;16.40;11.13;;;;;;;1.35;91.51;98903.88;5117295;27;20091;-71
2022/12/31 01:23:10;;;;;;;18.30;11.63;;;;;;;1.35;91.40;98901.25;5097610;27;20031;-70
2022/12/31 01:25:37;;;;;;;18.52;10.95;;;;;;;1.36;91.21;98903.78;5097872;27;20061;-72
2022/12/31 01:28:02;;;;;;;15.98;10.07;;;;;;;1.38;91.47;98906.34;5080939;27;20389;-72
2022/12/31 01:30:27;;;;;;;17.23;11.55;;;;;;;1.32;91.13;98901.38;5116680;27;20061;-72
2022/12/31 01:32:52;;;;;;;16.25;10.38;;;;;;;1.32;91.42;98904.00;5116792;27;20035;-70
2022/12/31 01:35:16;;;;;;;15.10;8.93;;;;;;;1.31;90.71;98905.78;5098062;27;20043;-71
2022/12/31 01:37:41;;;;;;;13.80;8.50;;;;;;;1.33;90.91;98900.47;5117088;27;20049;-72
2022/12/31 01:40:06;;;;;;;16.30;10.05;;;;;;;1.38;90.75;98901.09;5082437;27;20042;-70
2022/12/31 01:42:30;;;;;;;13.68;9.20;;;;;;;1.35;90.80;98902.13;5102086;27;20053;-73
2022/12/31 01:44:55;;;;;;;13.68;9.95;;;;;;;1.37;90.77;98908.13;5119110;27;20511;-71
2022/12/31 01:47:33;;;;;;;13.65;8.95;;;;;;;1.44;91.26;98914.81;5117723;27;20046;-72
2022/12/31 01:50:08;;;;;;;14.88;9.30;;;;;;;1.46;91.03;98909.50;5098402;27;20038;-71
2022/12/31 01:52:40;;;;;;;14.00;9.32;;;;;;;1.48;90.88;98902.38;5098104;27;20057;-73
2022/12/31 01:55:15;;;;;;;14.38;8.85;;;;;;;1.51;90.70;98904.00;5081281;27;20049;-73
2022/12/31 01:57:40;;;;;;;;;;;;;;;1.63;90.83;98900.81;5117148;27;20097;-68
2022/12/31 02:00:06;;;;;;;;;;;;;;;1.68;90.92;98897.06;5117124;27;20010;-71
2022/12/31 02:02:31;;;;;;;10.25;7.07;;;;;;;1.61;90.67;98898.25;5060421;27;19919;-65
2022/12/31 02:04:59;;;;;;;10.55;7.10;;;;;;;1.65;90.50;98902.44;5108261;27;20106;-69
2022/12/31 02:07:24;;;;;;;19.48;9.82;;;;;;;1.66;90.49;98891.03;5098376;27;20077;-71
2022/12/31 02:09:49;;;;;;;11.93;8.82;;;;;;;1.69;90.36;98890.03;5114463;27;20074;-68
2022/12/31 02:12:14;;;;;;;13.55;8.43;;;;;;;1.69;90.28;98888.22;5104555;27;20146;-72
2022/12/31 02:14:43;;;;;;;14.00;8.60;;;;;;;1.74;90.40;98895.91;5117250;27;20129;-70
2022/12/31 02:17:26;;;;;;;11.98;8.43;;;;;;;1.78;89.77;98894.84;5117974;27;20750;-69
2022/12/31 02:19:54;;;;;;;10.52;7.20;;;;;;;1.75;89.40;98890.56;5116463;27;20039;-69
2022/12/31 02:22:49;;;;;;;11.27;7.90;;;;;;;1.79;89.19;98893.91;5101857;27;20042;-71
2022/12/31 02:25:43;;;;;;;12.02;7.72;;;;;;;1.85;89.21;98892.75;5087114;27;20043;-71
2022/12/31 02:28:26;;;;;;;10.88;7.30;;;;;;;1.86;89.21;98897.09;5097791;27;20691;-66
2022/12/31 02:31:05;;;;;;;10.35;7.43;;;;;;;1.85;88.73;98890.97;5080480;27;20046;-66
2022/12/31 02:33:45;;;;;;;11.60;7.47;;;;;;;1.88;89.01;98900.50;5097580;27;20047;-67
2022/12/31 02:36:19;;;;;;;14.35;7.90;;;;;;;1.89;89.34;98902.22;5075572;27;20039;-68
2022/12/31 02:38:46;;;;;;;12.23;7.45;;;;;;;1.88;88.80;98903.13;5071836;27;20125;-70
2022/12/31 02:44:00;;;;;;;9.55;7.13;;;;;;;1.91;88.76;98905.63;5116463;27;20039;-71
2022/12/31 02:46:37;;;;;;;10.68;6.97;;;;;;;1.96;89.01;98914.13;5097759;27;20046;-67
2022/12/31 02:49:37;;;;;;;10.13;6.50;;;;;;;2.01;88.55;98904.25;5114298;27;20047;-69
2022/12/31 02:52:04;;;;;;;9.75;6.72;;;;;;;1.93;88.07;98907.22;4971171;28;20056;-68
2022/12/31 02:55:01;;;;;;;7.88;6.05;;;;;;;1.99;88.02;98911.34;5007407;28;20055;-66
2022/12/31 02:57:38;;;;;;;9.15;6.47;;;;;;;1.93;88.06;98914.25;4989373;28;20056;-72
2022/12/31 03:02:57;;;;;;;12.20;7.07;;;;;;;1.93;87.87;98901.09;5013559;28;20052;-71
2022/12/31 03:05:26;;;;;;;10.20;7.15;;;;;;;1.93;87.68;98909.84;5018536;28;20049;-72
2022/12/31 03:07:52;;;;;;;11.25;7.47;;;;;;;1.95;87.69;98915.03;5024583;28;20055;-72
2022/12/31 03:10:16;;;;;;;10.07;6.57;;;;;;;1.95;87.69;98915.03;5022209;28;20041;-73
2022/12/31 03:12:48;;;;;;;9.82;6.57;;;;;;;1.95;87.64;98913.25;5019654;28;20041;-73
2022/12/31 03:15:25;;;;;;;10.40;6.57;;;;;;;1.99;87.57;98917.47;4986285;28;20471;-72
2022/12/31 03:18:05;;;;;;;9.07;6.50;;;;;;;1.96;87.75;98914.97;5005992;28;20095;-71
2022/12/31 03:23:18;;;;;;;10.80;7.38;;;;;;;1.99;87.59;98924.50;5014980;28;20098;-70
2022/12/31 03:25:44;;;;;;;11.15;7.78;;;;;;;1.98;87.47;98918.38;5003394;28;20139;-74
2022/12/31 03:28:17;;;;;;;9.18;6.20;;;;;;;2.00;87.17;98924.41;5046318;27;20491;-74
2022/12/31 03:30:44;;;;;;;12.60;6.95;;;;;;;1.99;87.48;98922.72;5104460;27;20042;-74
2022/12/31 03:33:09;;;;;;;9.10;5.30;;;;;;;1.98;87.49;98923.63;5074151;27;20516;-71
2022/12/31 03:35:35;;;;;;;9.20;6.03;;;;;;;1.98;87.08;98925.41;5078484;27;21186;-71
2022/12/31 03:38:01;;;;;;;9.60;6.07;;;;;;;1.97;87.16;98921.06;5100951;27;20408;-72
2022/12/31 03:40:27;;;;;;;10.43;6.40;;;;;;;1.95;87.10;98921.16;5070269;27;20050;-73
2022/12/31 03:42:52;;;;;;;8.55;5.70;;;;;;;1.96;87.09;98919.38;5122596;27;20405;-74
2022/12/31 03:45:17;;;;;;;9.13;6.10;;;;;;;1.95;87.08;98930.81;5086507;27;20491;-74
2022/12/31 03:47:42;;;;;;;9.50;6.45;;;;;;;1.95;86.84;98921.16;5103572;27;20107;-74
2022/12/31 03:50:08;;;;;;;8.55;6.35;;;;;;;1.96;86.76;98924.63;5103829;27;20035;-72
2022/12/31 03:52:33;;;;;;;10.57;6.90;;;;;;;1.95;86.84;98936.91;5086606;27;20042;-72
2022/12/31 03:54:58;;;;;;;9.85;6.57;;;;;;;1.96;86.96;98924.63;5122131;27;20117;-73
2022/12/31 03:57:23;;;;;;;8.75;6.50;;;;;;;1.95;86.87;98930.81;5103281;27;20035;-74
2022/12/31 03:59:47;;;;;;;11.35;7.13;;;;;;;1.93;87.06;98940.53;5119005;27;20521;-73
2022/12/31 04:02:12;;;;;;;10.25;6.68;;;;;;;1.90;86.62;98940.72;5069512;27;20054;-71
2022/12/31 04:04:37;;;;;;;10.60;6.97;;;;;;;1.88;86.57;98943.41;5086222;27;20126;-72
2022/12/31 04:07:01;;;;;;;8.45;6.07;;;;;;;1.89;86.56;98950.38;5080986;27;20150;-70
2022/12/31 04:09:26;;;;;;;8.10;5.30;;;;;;;1.90;86.52;98957.34;5116451;27;20070;-73
2022/12/31 04:11:50;;;;;;;9.45;6.05;;;;;;;1.90;87.34;98959.97;5103400;27;20034;-73
2022/12/31 04:14:18;;;;;;;9.95;6.30;;;;;;;1.90;87.03;98965.22;5122113;27;20049;-74
2022/12/31 04:16:43;;;;;;;9.77;6.10;;;;;;;1.89;87.04;98960.03;5119859;27;20113;-73
2022/12/31 04:19:09;;;;;;;10.02;6.35;;;;;;;1.88;87.14;98966.19;5100527;27;20078;-73
2022/12/31 04:21:33;;;;;;;8.57;6.95;;;;;;;1.88;86.88;98968.84;5083222;27;20509;-73
2022/12/31 04:23:58;;;;;;;9.77;5.90;;;;;;;1.85;87.09;98959.31;5080021;27;20399;-72
2022/12/31 04:26:22;;;;;;;9.07;6.13;;;;;;;1.85;87.21;98958.47;5080049;27;20039;-72
2022/12/31 04:28:47;;;;;;;8.88;5.80;;;;;;;1.84;87.32;98957.59;5099467;27;20043;-71
2022/12/31 04:31:11;;;;;;;10.55;6.10;;;;;;;1.83;88.00;98959.38;5100329;27;20438;-73
2022/12/31 04:33:36;;;;;;;13.95;6.60;;;;;;;1.72;87.92;98964.28;5119153;27;20070;-73
2022/12/31 04:36:06;;;;;;;9.98;6.38;;;;;;;1.68;87.87;98967.13;5099944;27;20035;-71
2022/12/31 04:38:31;;;;;;;10.20;6.95;;;;;;;1.59;87.05;98967.53;5119067;27;20046;-73
2022/12/31 04:43:39;;;;;;;8.40;5.30;;;;;;;1.56;86.71;98983.47;5118683;27;20038;-72
2022/12/31 04:46:03;;;;;;;7.82;5.18;;;;;;;1.53;86.56;98981.81;5099780;27;20038;-71
2022/12/31 04:48:28;;;;;;;8.13;5.43;;;;;;;1.54;86.92;98986.16;5100304;27;20039;-73
2022/12/31 04:50:52;;;;;;;8.10;5.35;;;;;;;1.56;87.36;98993.97;5118329;27;20094;-72
2022/12/31 04:53:17;;;;;;;9.73;6.60;;;;;;;1.50;87.13;98996.84;5100013;27;20572;-73
2022/12/31 04:55:41;;;;;;;8.18;5.80;;;;;;;1.47;86.58;99010.97;5118178;27;20050;-72
2022/12/31 04:58:06;;;;;;;9.02;5.80;;;;;;;1.44;86.09;99004.09;5118056;27;20369;-71
2022/12/31 05:00:31;;;;;;;9.38;5.82;;;;;;;1.48;86.67;99011.81;5099576;27;20049;-73
2022/12/31 05:02:55;;;;;;;8.48;5.93;;;;;;;1.55;87.56;99021.16;5117893;27;20038;-74
2022/12/31 05:05:20;;;;;;;8.93;5.60;;;;;;;1.59;87.70;99026.19;5099321;27;20157;-74
2022/12/31 05:07:44;;;;;;;9.18;6.38;;;;;;;1.61;87.57;99019.09;5099699;27;20049;-74
2022/12/31 05:10:11;;;;;;;11.10;6.10;;;;;;;1.64;87.47;99024.22;5118627;27;20050;-65
2022/12/31 05:12:36;;;;;;;10.77;6.68;;;;;;;1.68;87.62;99028.41;5089183;27;20139;-66
2022/12/31 05:15:00;;;;;;;16.65;6.15;;;;;;;1.64;87.38;99029.47;5083158;27;20081;-64
2022/12/31 05:17:25;;;;;;;8.50;6.18;;;;;;;1.63;87.21;99034.78;5117667;27;20046;-65
2022/12/31 05:19:49;;;;;;;10.93;6.30;;;;;;;1.64;87.13;99039.13;5117694;27;20466;-65
2022/12/31 05:22:29;;;;;;;7.72;5.68;;;;;;;1.65;87.47;99041.69;5117399;27;20396;-64
2022/12/31 05:24:54;;;;;;;7.55;5.40;;;;;;;1.65;87.46;99057.47;5098851;27;20125;-64
2022/12/31 05:27:19;;;;;;;9.35;6.15;;;;;;;1.66;87.45;99059.16;5079003;27;20179;-74
2022/12/31 05:29:43;;;;;;;13.23;6.47;;;;;;;1.68;87.57;99065.22;5077373;27;20043;-74
2022/12/31 05:32:08;;;;;;;10.35;6.97;;;;;;;1.69;87.87;99061.63;5096067;27;20039;-73
2022/12/31 05:34:32;;;;;;;9.80;6.45;;;;;;;1.73;87.87;99076.34;5061690;27;20035;-73
2022/12/31 05:36:57;;;;;;;9.60;6.97;;;;;;;1.71;87.57;99082.59;5114782;27;20489;-73
2022/12/31 05:39:21;;;;;;;9.65;6.88;;;;;;;1.69;87.16;99085.28;5121722;27;20129;-72
2022/12/31 05:41:46;;;;;;;9.07;6.03;;;;;;;1.69;87.44;99089.72;5118756;27;20571;-74
2022/12/31 05:44:11;;;;;;;9.20;6.93;;;;;;;1.68;87.55;99088.84;5117656;27;20043;-72
2022/12/31 05:46:35;;;;;;;11.00;7.30;;;;;;;1.71;87.77;99088.69;5118551;27;20124;-72
2022/12/31 05:49:00;;;;;;;9.13;6.25;;;;;;;1.73;87.92;99094.75;5122487;27;20046;-72
2022/12/31 05:51:24;;;;;;;9.50;6.53;;;;;;;1.75;87.87;99095.53;5122085;27;20030;-73
2022/12/31 05:53:49;;;;;;;11.18;6.88;;;;;;;1.77;88.66;99104.22;5118076;27;20047;-74
2022/12/31 05:56:14;;;;;;;10.65;7.30;;;;;;;1.74;88.23;99106.97;5100123;27;20702;-74
2022/12/31 05:58:38;;;;;;;10.05;6.88;;;;;;;1.74;87.83;99108.75;5117396;27;20137;-73
2022/12/31 06:01:03;;;;;;;10.43;5.97;;;;;;;1.72;87.88;99111.44;5098438;27;20449;-73
2022/12/31 06:03:29;;;;;;;11.85;7.95;;;;;;;1.67;87.57;99120.44;5061557;27;20476;-73
2022/12/31 06:05:54;;;;;;;10.70;6.72;;;;;;;1.73;87.98;99131.53;5107988;27;20449;-74
2022/12/31 06:08:18;;;;;;;12.77;7.85;;;;;;;1.77;88.32;99143.63;5116870;27;20457;-74
2022/12/31 06:10:43;;;;;;;15.23;9.43;;;;;;;1.78;88.41;99137.44;5098531;27;20459;-74
2022/12/31 06:13:07;;;;;;;15.93;9.70;;;;;;;1.79;88.33;99139.16;5116396;27;20047;-74
2022/12/31 06:15:38;;;;;;;15.50;9.82;;;;;;;1.85;88.03;99137.16;5098891;27;20037;-73
2022/12/31 06:18:03;;;;;;;14.77;8.68;;;;;;;1.84;88.16;99152.09;5100551;27;20047;-74
2022/12/31 06:20:28;;;;;;;10.10;7.25;;;;;;;1.80;87.75;99156.63;5100177;27;20030;-74
2022/12/31 06:22:52;;;;;;;12.82;8.23;;;;;;;1.83;87.77;99166.13;5099586;27;20500;-73
2022/12/31 06:25:17;;;;;;;14.23;7.95;;;;;;;1.81;87.69;99166.19;5118280;27;20046;-73
2022/12/31 06:27:41;;;;;;;10.55;6.72;;;;;;;1.86;87.77;99173.03;5100186;27;20069;-73
2022/12/31 06:30:07;;;;;;;11.15;7.65;;;;;;;1.86;87.75;99175.66;5069368;27;20043;-74
2022/12/31 06:32:31;;;;;;;12.70;8.18;;;;;;;1.87;87.63;99186.13;5099668;27;20042;-74
2022/12/31 06:34:56;;;;;;;12.18;7.38;;;;;;;1.83;87.06;99197.69;5068392;27;20043;-74
2022/12/31 06:37:21;;;;;;;11.07;7.35;;;;;;;1.86;87.09;99197.56;5075637;27;20064;-74
2022/12/31 06:39:45;;;;;;;14.20;6.65;;;;;;;1.89;87.52;99202.69;5117196;27;20497;-72
2022/12/31 06:42:10;;;;;;;10.27;7.25;;;;;;;1.86;87.62;99210.69;5060851;27;20497;-75
2022/12/31 06:44:35;;;;;;;17.73;7.22;;;;;;;1.89;87.48;99220.22;5114165;27;20540;-75
2022/12/31 06:47:00;;;;;;;9.18;6.55;;;;;;;1.89;87.72;99213.19;5116889;27;20567;-75
2022/12/31 06:49:24;;;;;;;13.82;7.50;;;;;;;1.89;87.63;99222.84;5068468;27;20606;-74
2022/12/31 06:51:49;;;;;;;12.23;7.45;;;;;;;1.91;87.79;99221.03;5100291;27;20504;-74
2022/12/31 06:54:14;;;;;;;12.00;7.95;;;;;;;1.93;87.61;99234.94;5078540;28;20408;-75
2022/12/31 06:56:40;;;;;;;13.20;8.40;;;;;;;1.94;87.85;99234.00;5116955;27;20099;-76
2022/12/31 06:59:05;;;;;;;10.85;7.60;;;;;;;1.96;87.93;99233.03;5099349;27;20047;-75
2022/12/31 07:01:40;;;;;;;13.00;8.32;;;;;;;2.03;88.69;99242.34;5098946;27;20094;-75
2022/12/31 07:04:46;;;;;;;14.57;7.97;;;;;;;2.01;88.39;99238.97;5116879;27;20039;-73
2022/12/31 07:07:24;;;;;;;12.38;7.90;;;;;;;1.98;88.25;99232.97;5016152;28;20040;-75
2022/12/31 07:09:50;;;;;;;11.75;7.03;;;;;;;1.97;88.53;99240.00;5032392;28;20502;-74
2022/12/31 07:12:35;;;;;;;13.40;7.75;;;;;;;1.95;88.13;99239.22;5032470;28;20048;-75
2022/12/31 07:15:37;;;;;;;11.32;6.93;;;;;;;2.07;88.41;99243.09;5030603;28;20522;-75
2022/12/31 07:18:13;;;;;;;12.02;7.38;;;;;;;2.06;88.58;99252.75;5027345;28;20147;-74
2022/12/31 07:20:39;;;;;;;9.48;6.68;;;;;;;2.01;88.02;99256.50;5042206;28;20565;-75
2022/12/31 07:23:07;;;;;;;11.50;7.22;;;;;;;2.05;87.95;99256.28;5030067;28;20511;-74
2022/12/31 07:25:32;;;;;;;9.98;6.90;;;;;;;2.07;87.96;99257.09;5032294;28;20102;-75
2022/12/31 07:28:18;;;;;;;12.70;8.13;;;;;;;2.13;87.68;99255.97;5033325;28;20048;-75
2022/12/31 07:30:57;;;;;;;15.90;8.60;;;;;;;2.19;87.90;99261.81;4999104;28;20613;-73
2022/12/31 07:33:22;;;;;;;12.93;8.65;;;;;;;2.19;87.87;99260.97;5032006;28;20040;-74
2022/12/31 07:35:52;;;;;;;14.23;9.52;;;;;;;2.16;87.26;99267.19;5032071;28;20070;-74
2022/12/31 07:38:35;;;;;;;16.73;9.38;;;;;;;2.21;86.86;99276.66;5007197;28;20052;-74
2022/12/31 07:40:59;;;;;;;14.13;9.40;;;;;;;2.20;86.87;99281.06;5042125;28;20048;-74
2022/12/31 07:43:30;;;;;;;13.38;8.88;;;;;;;2.26;87.29;99280.78;5018232;27;20043;-73
2022/12/31 07:46:15;;;;;;;12.65;9.10;;;;;;;2.31;87.32;99289.34;5072545;27;20043;-75
2022/12/31 07:48:40;;;;;;;13.68;8.43;;;;;;;2.25;87.58;99281.75;5075243;28;20057;-75
2022/12/31 07:51:05;;;;;;;12.63;8.50;;;;;;;2.30;87.60;99292.03;5081799;27;20051;-75
2022/12/31 07:53:30;;;;;;;13.10;8.65;;;;;;;2.30;87.26;99282.38;5104615;27;20034;-73
2022/12/31 07:55:58;;;;;;;11.68;7.07;;;;;;;2.34;87.56;99291.00;5103101;27;20382;-73
2022/12/31 07:58:54;;;;;;;11.95;8.50;;;;;;;2.42;87.86;99300.25;5065092;27;20679;-74
2022/12/31 08:01:31;;;;;;;11.38;7.22;;;;;;;2.45;88.03;99294.00;5038926;28;20126;-73
2022/12/31 08:04:07;;;;;;;16.38;9.20;;;;;;;2.41;87.58;99305.59;5038765;28;20615;-74
2022/12/31 08:06:34;;;;;;;25.20;13.32;;;;;;;2.35;86.89;99297.97;5026821;28;20530;-73
2022/12/31 08:09:13;;;;;;;15.98;10.25;;;;;;;2.39;87.18;99302.16;5005981;28;20052;-73
2022/12/31 08:11:53;;;;;;;14.27;8.80;;;;;;;2.39;87.45;99297.75;5026158;28;20044;-75
2022/12/31 08:14:18;;;;;;;12.50;8.10;;;;;;;2.38;87.21;99301.31;5012921;28;20510;-74
2022/12/31 08:16:43;;;;;;;12.18;8.10;;;;;;;2.41;86.98;99309.06;5027173;28;20037;-73
2022/12/31 08:19:37;;;;;;;14.50;8.43;;;;;;;2.47;87.84;99306.19;5019018;28;20052;-74
2022/12/31 08:22:23;;;;;;;11.20;7.85;;;;;;;2.50;87.64;99308.66;5035151;28;20515;-73
2022/12/31 08:24:50;;;;;;;15.25;9.93;;;;;;;2.43;87.64;99307.22;5018603;28;20070;-74
2022/12/31 08:27:20;;;;;;;12.45;7.63;;;;;;;2.45;87.53;99307.16;5002329;28;20044;-73
2022/12/31 08:30:20;;;;;;;13.23;8.35;;;;;;;2.54;87.68;99318.13;5001783;28;20533;-74
2022/12/31 08:32:50;;;;;;;10.35;6.82;;;;;;;2.50;87.71;99316.56;4942594;28;20077;-73
2022/12/31 08:35:32;;;;;;;13.45;9.00;;;;;;;2.58;87.77;99320.66;4935426;28;20098;-76
2022/12/31 08:38:11;;;;;;;14.25;9.52;;;;;;;2.60;87.50;99316.19;4974365;28;20060;-74
2022/12/31 08:40:47;;;;;;;15.63;8.75;;;;;;;2.59;87.99;99317.09;4998643;28;20662;-74
2022/12/31 08:43:24;;;;;;;13.73;9.10;;;;;;;2.61;86.98;99312.59;4981563;28;20041;-72
2022/12/31 08:45:51;;;;;;;13.75;8.13;;;;;;;2.60;86.94;99316.19;4998592;28;20045;-73
2022/12/31 08:48:24;;;;;;;16.90;9.75;;;;;;;2.57;86.54;99322.41;4982076;28;20499;-74
2022/12/31 08:50:49;;;;;;;12.65;9.05;;;;;;;2.57;86.75;99317.16;4998916;28;20063;-74
2022/12/31 08:53:13;;;;;;;16.15;10.52;;;;;;;2.55;86.44;99325.13;4998685;28;20131;-73
2022/12/31 08:55:42;;;;;;;15.93;10.30;;;;;;;2.58;86.76;99318.00;4998540;28;20131;-75
2022/12/31 08:58:34;;;;;;;18.17;11.80;;;;;;;2.61;87.03;99328.38;5014872;28;20063;-74
2022/12/31 09:01:00;;;;;;;16.13;10.80;;;;;;;2.61;87.14;99326.59;4978585;28;20144;-75
2022/12/31 09:03:42;;;;;;;19.92;12.00;;;;;;;2.68;87.03;99329.84;5013261;28;20072;-75
2022/12/31 09:06:22;;;;;;;16.33;11.38;;;;;;;2.73;87.01;99346.25;5014784;28;20048;-74
2022/12/31 09:08:57;;;;;;;16.42;11.18;;;;;;;2.72;86.63;99347.19;5062538;28;20077;-73
2022/12/31 09:11:29;;;;;;;15.05;10.20;;;;;;;2.71;86.45;99354.22;5073238;27;20420;-74
2022/12/31 09:14:18;;;;;;;18.20;11.57;;;;;;;2.70;86.17;99351.69;5096136;27;20038;-74
2022/12/31 09:17:04;;;;;;;13.73;9.20;;;;;;;2.67;84.87;99365.84;5096390;27;20078;-75
2022/12/31 09:19:29;;;;;;;15.23;9.77;;;;;;;2.61;84.29;99358.19;5068213;28;20397;-73
2022/12/31 09:21:54;;;;;;;13.35;8.73;;;;;;;2.66;84.90;99358.00;5079639;27;20433;-73
2022/12/31 09:24:19;;;;;;;13.35;9.05;;;;;;;2.66;84.41;99358.00;5096143;27;20078;-73
2022/12/31 09:26:53;;;;;;;12.68;8.88;;;;;;;2.67;85.31;99367.59;5096862;27;20046;-75
2022/12/31 09:29:47;;;;;;;14.02;10.00;;;;;;;2.71;85.68;99361.28;5078668;27;20050;-74
2022/12/31 09:32:28;;;;;;;15.88;10.60;;;;;;;2.66;84.85;99361.47;5093116;27;20054;-74
2022/12/31 09:34:53;;;;;;;17.83;10.20;;;;;;;2.65;85.32;99379.97;5096770;27;20362;-73
2022/12/31 09:37:35;;;;;;;15.35;10.38;;;;;;;2.66;85.62;99369.38;5096640;27;20146;-74
2022/12/31 09:40:15;;;;;;;18.13;10.98;;;;;;;2.56;84.93;99373.34;5066247;27;20601;-74
2022/12/31 09:43:02;;;;;;;18.42;11.18;;;;;;;2.47;83.74;99373.75;5064513;27;20047;-74
2022/12/31 09:45:56;;;;;;;20.73;12.10;;;;;;;2.51;83.62;99378.78;5097546;27;20042;-74
2022/12/31 09:48:29;;;;;;;15.82;10.32;;;;;;;2.54;83.58;99377.81;5097286;27;20489;-78
2022/12/31 09:50:58;;;;;;;17.30;9.25;;;;;;;2.57;84.23;99384.72;5095659;27;20046;-75
2022/12/31 09:53:34;;;;;;;18.13;10.40;;;;;;;2.47;83.94;99395.66;5077866;27;20502;-64
2022/12/31 09:56:11;;;;;;;12.73;8.32;;;;;;;2.42;83.36;99409.91;5088451;27;20039;-64
2022/12/31 09:58:49;;;;;;;15.10;8.48;;;;;;;2.47;83.98;99411.44;5095505;27;20058;-64
2022/12/31 10:01:14;;;;;;;18.08;9.52;;;;;;;2.39;83.74;99418.75;5098366;27;20048;-63
2022/12/31 10:03:47;;;;;;;11.68;7.55;;;;;;;2.46;84.49;99433.41;5074289;27;20043;-63
2022/12/31 10:06:42;;;;;;;9.40;6.18;;;;;;;2.47;84.96;99435.09;5110106;27;20038;-63
2022/12/31 10:09:15;;;;;;;;;;;;;;;2.49;83.63;99438.50;5091540;27;20141;-65
2022/12/31 10:12:05;;;;;;;13.73;7.35;;;;;;;2.41;83.55;99435.34;5097856;27;19963;-63
2022/12/31 10:14:50;;;;;;;9.95;6.63;;;;;;;2.46;83.97;99435.16;5080473;27;20038;-63
2022/12/31 10:17:50;;;;;;;11.30;7.18;;;;;;;2.46;83.72;99430.75;5117611;27;20045;-64
2022/12/31 10:20:22;;;;;;;8.90;5.68;;;;;;;2.50;84.26;99427.06;5120910;27;20042;-63
2022/12/31 10:23:04;;;;;;;9.43;6.20;;;;;;;2.55;84.80;99430.38;5098200;27;20047;-64
2022/12/31 10:26:05;;;;;;;16.17;7.40;;;;;;;2.61;85.61;99431.88;5116366;27;20038;-66
2022/12/31 10:28:47;;;;;;;9.73;6.22;;;;;;;2.56;84.11;99423.34;5097985;27;20042;-66
2022/12/31 10:31:32;;;;;;;13.70;6.43;;;;;;;2.57;84.61;99432.94;5098045;27;20087;-64
2022/12/31 10:34:15;;;;;;;7.35;5.25;;;;;;;2.65;84.68;99432.59;5032418;28;20506;-65
2022/12/31 10:37:09;;;;;;;9.32;6.20;;;;;;;2.68;84.62;99419.31;5010692;28;20056;-65
2022/12/31 10:40:22;;;;;;;6.97;5.15;;;;;;;2.69;83.89;99421.91;5015474;28;20044;-64
2022/12/31 10:43:02;;;;;;;10.60;5.97;;;;;;;2.73;84.97;99418.19;4999225;28;20056;-65
2022/12/31 10:46:08;;;;;;;8.80;5.80;;;;;;;2.75;85.59;99426.03;5000485;28;20063;-67
2022/12/31 10:48:35;;;;;;;9.38;5.22;;;;;;;2.72;85.38;99428.78;5016973;28;20078;-65
2022/12/31 10:51:39;;;;;;;7.97;4.95;;;;;;;2.77;85.39;99437.34;5032750;28;20059;-66
2022/12/31 10:54:13;;;;;;;8.55;5.28;;;;;;;2.70;84.80;99449.06;5021678;28;20040;-66
2022/12/31 10:56:37;;;;;;;9.02;6.20;;;;;;;2.64;84.05;99451.94;5030439;28;20048;-65
2022/12/31 10:59:44;;;;;;;9.25;6.00;;;;;;;2.68;83.62;99449.13;5040062;28;20051;-66
2022/12/31 11:02:17;;;;;;;11.50;7.82;;;;;;;2.54;82.92;99460.22;5022572;28;20657;-66
2022/12/31 11:04:54;;;;;;;7.88;6.20;;;;;;;2.53;83.06;99468.19;4985293;28;20045;-65
2022/12/31 11:07:24;;;;;;;9.10;6.20;;;;;;;2.60;83.30;99461.72;5033218;28;20632;-64
2022/12/31 11:09:57;;;;;;;13.02;6.43;;;;;;;2.69;83.35;99473.69;5033715;28;20514;-65
2022/12/31 11:12:42;;;;;;;9.90;6.80;;;;;;;2.62;82.96;99488.00;5075428;28;20043;-65
2022/12/31 11:15:19;;;;;;;12.52;6.50;;;;;;;2.71;82.96;99492.91;5076244;28;20113;-64
2022/12/31 11:17:47;;;;;;;8.98;5.72;;;;;;;2.78;83.59;99489.06;5073336;28;20524;-65
2022/12/31 11:20:49;;;;;;;9.73;5.95;;;;;;;2.75;82.49;99487.41;5056598;28;20031;-64
2022/12/31 11:23:34;;;;;;;8.73;6.20;;;;;;;2.78;82.51;99489.06;5077029;28;20089;-64
2022/12/31 11:26:14;;;;;;;;;;;;;;;2.75;81.74;99494.47;5083747;27;20046;-65
2022/12/31 11:28:58;;;;;;;8.43;4.65;;;;;;;2.79;81.90;99489.00;5097880;27;19966;-65
2022/12/31 11:31:39;;;;;;;8.20;5.25;;;;;;;2.76;81.86;99494.41;5103234;27;20413;-65
2022/12/31 11:34:13;;;;;;;8.63;5.75;;;;;;;2.69;82.54;99503.47;5070415;27;20037;-65
2022/12/31 11:37:09;;;;;;;8.60;5.07;;;;;;;2.77;82.46;99525.06;5074374;28;20414;-64
2022/12/31 11:39:51;;;;;;;7.72;4.35;;;;;;;2.74;82.18;99534.84;5061692;28;20032;-63
2022/12/31 11:42:45;;;;;;;6.00;4.55;;;;;;;2.73;82.90;99541.91;5101041;27;20039;-65
2022/12/31 11:45:09;;;;;;;7.18;5.05;;;;;;;2.62;82.29;99540.63;5080505;27;20055;-64
2022/12/31 11:48:02;;;;;;;6.65;4.70;;;;;;;2.59;81.53;99544.25;5099261;27;20087;-65
2022/12/31 11:50:26;;;;;;;8.00;4.35;;;;;;;2.52;81.73;99538.38;5099532;27;20074;-66
2022/12/31 11:53:10;;;;;;;8.10;5.07;;;;;;;2.52;81.49;99535.75;5098973;27;20047;-64
2022/12/31 11:55:59;;;;;;;6.00;4.30;;;;;;;2.51;81.45;99539.28;5097387;27;20039;-66
2022/12/31 11:58:27;;;;;;;6.22;4.15;;;;;;;2.54;81.94;99539.16;5060332;28;20481;-64
2022/12/31 12:00:59;;;;;;;7.15;4.47;;;;;;;2.58;82.58;99533.78;5068408;28;20135;-64
2022/12/31 12:03:24;;;;;;;5.90;4.30;;;;;;;2.49;82.35;99540.25;5096854;27;20050;-65
2022/12/31 12:05:49;;;;;;;5.35;4.35;;;;;;;2.48;82.25;99543.84;5098579;27;20051;-64
2022/12/31 12:08:14;;;;;;;7.40;4.75;;;;;;;2.52;82.86;99554.16;5097749;27;20818;-64
2022/12/31 12:10:49;;;;;;;5.78;4.57;;;;;;;2.60;83.00;99547.75;5097425;27;20058;-65